Strona główna
METAR-TAF:

METAR-TAF

Lotnisko :

Mont-de-Marsan, Francja

Szerokość geograficzna: 43-55N, Długość geograficzna: 000-30W, wysokość: 62 m

Aktualna obserwacja pogody

Raport powstał 16 minut temu, godzina 12:00 UTC
Wiatr 9 kt od zachód
Temperatura 23°C
Wilgotność 61%
Ciśnienie 1019 hPa
Widzialność 10 km lub więcej
Mało chmury na wysokości 3500 ft
Przerywane chmury na wysokości 4500 ft
Przerywane chmury na wysokości 5400 ft

METAR: LFBM 181200Z AUTO 26009KT 9999 FEW035 BKN045 BKN054 23/15 Q1019 NOSIG

czas: 14:16 (12:16 UTC)

Prognoza

Raport powstał 4 godziny i 16 minut temu, godzina 08:00 UTC
Prognoza ważna od 18 godzina 09 UTC do 19 godzina 09 UTC
Wiatr 5 kt od zachód
Widzialność 10 km lub więcej
Brak chmur poniżej 1500 m i brak chmur cumulonimbus

TAF: LFBM 180800Z 1809/1909 28005KT CAVOK

Obserwacja i prognoza pogody dla ponad 4000 lotnisk (raport METAR i TAF).

Dostępne stacje oznaczono żółtymi i czerwonymi punktami na mapie.

Najedź kursorem aby zobaczyć nazwę stacji.

Kliknij aby zobaczyć obserwacje i prognozy pogody.

Aby zmienić mapę: kliknij na zielony przycisk z czarnym krzyżykiem, aby powiększyć; na zielony przycisk z myślnikiem, aby pomniejszyć; na zielone strzałki, aby przejść do map sąsiednich.


METAR-TAF: